sensor_id;sensor_type;location;lat;lon;timestamp;P1;durP1;ratioP1;P2;durP2;ratioP2
56457;SDS011;42360;42.918;12.366;2024-01-25T00:01:41;18.42;;;13.77;;
56457;SDS011;42360;42.918;12.366;2024-01-25T00:04:07;19.73;;;13.45;;
56457;SDS011;42360;42.918;12.366;2024-01-25T00:06:33;19.25;;;12.88;;
56457;SDS011;42360;42.918;12.366;2024-01-25T00:09:00;18.45;;;12.77;;
56457;SDS011;42360;42.918;12.366;2024-01-25T00:11:26;22.15;;;13.30;;
56457;SDS011;42360;42.918;12.366;2024-01-25T00:13:51;15.77;;;12.35;;
56457;SDS011;42360;42.918;12.366;2024-01-25T00:16:17;20.33;;;12.27;;
56457;SDS011;42360;42.918;12.366;2024-01-25T00:18:43;16.33;;;13.02;;
56457;SDS011;42360;42.918;12.366;2024-01-25T00:21:08;19.48;;;13.13;;
56457;SDS011;42360;42.918;12.366;2024-01-25T00:23:34;22.23;;;12.70;;
56457;SDS011;42360;42.918;12.366;2024-01-25T00:26:00;22.33;;;14.45;;
56457;SDS011;42360;42.918;12.366;2024-01-25T00:28:26;19.42;;;13.35;;
56457;SDS011;42360;42.918;12.366;2024-01-25T00:30:53;22.67;;;14.95;;
56457;SDS011;42360;42.918;12.366;2024-01-25T00:33:18;26.02;;;15.18;;
56457;SDS011;42360;42.918;12.366;2024-01-25T00:35:44;20.98;;;14.48;;
56457;SDS011;42360;42.918;12.366;2024-01-25T00:38:10;20.75;;;12.50;;
56457;SDS011;42360;42.918;12.366;2024-01-25T00:40:36;12.13;;;9.00;;
56457;SDS011;42360;42.918;12.366;2024-01-25T00:43:02;13.52;;;9.02;;
56457;SDS011;42360;42.918;12.366;2024-01-25T00:45:28;17.17;;;9.65;;
56457;SDS011;42360;42.918;12.366;2024-01-25T00:47:54;17.92;;;9.65;;
56457;SDS011;42360;42.918;12.366;2024-01-25T01:00:25;14.85;;;8.45;;
56457;SDS011;42360;42.918;12.366;2024-01-25T01:05:36;15.73;;;9.73;;
56457;SDS011;42360;42.918;12.366;2024-01-25T01:08:02;13.70;;;9.15;;
56457;SDS011;42360;42.918;12.366;2024-01-25T01:10:28;20.85;;;11.30;;
56457;SDS011;42360;42.918;12.366;2024-01-25T01:12:54;19.02;;;9.55;;
56457;SDS011;42360;42.918;12.366;2024-01-25T01:15:19;13.52;;;8.82;;
56457;SDS011;42360;42.918;12.366;2024-01-25T01:17:45;13.93;;;8.98;;
56457;SDS011;42360;42.918;12.366;2024-01-25T01:20:10;14.65;;;9.32;;
56457;SDS011;42360;42.918;12.366;2024-01-25T01:22:36;14.98;;;9.82;;
56457;SDS011;42360;42.918;12.366;2024-01-25T01:25:01;18.40;;;10.25;;
56457;SDS011;42360;42.918;12.366;2024-01-25T01:27:27;19.08;;;10.70;;
56457;SDS011;42360;42.918;12.366;2024-01-25T01:29:52;18.08;;;10.13;;
56457;SDS011;42360;42.918;12.366;2024-01-25T01:32:18;13.38;;;9.13;;
56457;SDS011;42360;42.918;12.366;2024-01-25T01:34:43;15.98;;;9.95;;
56457;SDS011;42360;42.918;12.366;2024-01-25T01:37:09;16.70;;;10.15;;
56457;SDS011;42360;42.918;12.366;2024-01-25T01:39:34;15.15;;;9.20;;
56457;SDS011;42360;42.918;12.366;2024-01-25T01:42:00;10.43;;;8.50;;
56457;SDS011;42360;42.918;12.366;2024-01-25T01:44:27;13.55;;;8.98;;
56457;SDS011;42360;42.918;12.366;2024-01-25T01:46:53;12.40;;;9.07;;
56457;SDS011;42360;42.918;12.366;2024-01-25T01:49:20;17.52;;;11.43;;
56457;SDS011;42360;42.918;12.366;2024-01-25T01:51:45;19.17;;;11.88;;
56457;SDS011;42360;42.918;12.366;2024-01-25T01:54:11;23.58;;;13.52;;
56457;SDS011;42360;42.918;12.366;2024-01-25T01:56:36;22.65;;;13.43;;
56457;SDS011;42360;42.918;12.366;2024-01-25T01:59:05;21.65;;;13.20;;
56457;SDS011;42360;42.918;12.366;2024-01-25T02:01:34;20.92;;;13.23;;
56457;SDS011;42360;42.918;12.366;2024-01-25T02:03:59;21.60;;;13.57;;
56457;SDS011;42360;42.918;12.366;2024-01-25T02:06:25;18.50;;;12.40;;
56457;SDS011;42360;42.918;12.366;2024-01-25T02:08:51;19.17;;;13.57;;
56457;SDS011;42360;42.918;12.366;2024-01-25T02:11:18;18.05;;;11.90;;
56457;SDS011;42360;42.918;12.366;2024-01-25T02:13:45;14.57;;;11.05;;
56457;SDS011;42360;42.918;12.366;2024-01-25T02:16:10;21.20;;;12.00;;
56457;SDS011;42360;42.918;12.366;2024-01-25T02:18:36;23.83;;;12.85;;
56457;SDS011;42360;42.918;12.366;2024-01-25T02:21:01;19.08;;;13.93;;
56457;SDS011;42360;42.918;12.366;2024-01-25T02:23:27;22.05;;;13.13;;
56457;SDS011;42360;42.918;12.366;2024-01-25T02:25:52;21.73;;;14.55;;
56457;SDS011;42360;42.918;12.366;2024-01-25T02:28:18;24.75;;;14.05;;
56457;SDS011;42360;42.918;12.366;2024-01-25T02:30:44;22.50;;;15.15;;
56457;SDS011;42360;42.918;12.366;2024-01-25T02:33:09;20.63;;;12.88;;
56457;SDS011;42360;42.918;12.366;2024-01-25T02:35:34;21.30;;;13.90;;
56457;SDS011;42360;42.918;12.366;2024-01-25T02:38:00;19.95;;;14.30;;
56457;SDS011;42360;42.918;12.366;2024-01-25T02:40:25;20.92;;;13.00;;
56457;SDS011;42360;42.918;12.366;2024-01-25T02:42:51;21.27;;;12.07;;
56457;SDS011;42360;42.918;12.366;2024-01-25T02:45:16;17.20;;;11.55;;
56457;SDS011;42360;42.918;12.366;2024-01-25T02:47:42;22.70;;;14.02;;
56457;SDS011;42360;42.918;12.366;2024-01-25T02:50:08;20.42;;;12.77;;
56457;SDS011;42360;42.918;12.366;2024-01-25T02:52:34;19.98;;;14.38;;
56457;SDS011;42360;42.918;12.366;2024-01-25T02:54:59;18.38;;;13.15;;
56457;SDS011;42360;42.918;12.366;2024-01-25T02:57:25;21.67;;;14.32;;
56457;SDS011;42360;42.918;12.366;2024-01-25T02:59:50;20.30;;;14.63;;
56457;SDS011;42360;42.918;12.366;2024-01-25T03:02:16;18.90;;;13.40;;
56457;SDS011;42360;42.918;12.366;2024-01-25T03:04:44;24.20;;;15.27;;
56457;SDS011;42360;42.918;12.366;2024-01-25T03:07:10;17.58;;;12.82;;
56457;SDS011;42360;42.918;12.366;2024-01-25T03:09:35;19.65;;;12.85;;
56457;SDS011;42360;42.918;12.366;2024-01-25T03:12:01;17.75;;;13.05;;
56457;SDS011;42360;42.918;12.366;2024-01-25T03:14:26;18.40;;;12.68;;
56457;SDS011;42360;42.918;12.366;2024-01-25T03:16:52;19.35;;;13.00;;
56457;SDS011;42360;42.918;12.366;2024-01-25T03:19:18;19.00;;;12.75;;
56457;SDS011;42360;42.918;12.366;2024-01-25T03:21:43;20.00;;;11.85;;
56457;SDS011;42360;42.918;12.366;2024-01-25T03:24:09;17.75;;;12.20;;
56457;SDS011;42360;42.918;12.366;2024-01-25T03:26:34;22.02;;;13.43;;
56457;SDS011;42360;42.918;12.366;2024-01-25T03:28:59;22.90;;;13.60;;
56457;SDS011;42360;42.918;12.366;2024-01-25T03:31:25;19.08;;;13.05;;
56457;SDS011;42360;42.918;12.366;2024-01-25T03:33:50;21.95;;;14.30;;
56457;SDS011;42360;42.918;12.366;2024-01-25T03:36:16;20.48;;;13.82;;
56457;SDS011;42360;42.918;12.366;2024-01-25T03:38:41;18.50;;;12.60;;
56457;SDS011;42360;42.918;12.366;2024-01-25T03:41:08;19.60;;;13.13;;
56457;SDS011;42360;42.918;12.366;2024-01-25T03:43:34;18.85;;;13.70;;
56457;SDS011;42360;42.918;12.366;2024-01-25T03:46:00;19.40;;;13.38;;
56457;SDS011;42360;42.918;12.366;2024-01-25T03:48:26;19.83;;;12.65;;
56457;SDS011;42360;42.918;12.366;2024-01-25T03:50:51;21.42;;;12.85;;
56457;SDS011;42360;42.918;12.366;2024-01-25T03:53:21;18.00;;;12.73;;
56457;SDS011;42360;42.918;12.366;2024-01-25T03:55:47;18.35;;;12.57;;
56457;SDS011;42360;42.918;12.366;2024-01-25T03:58:14;16.88;;;12.50;;
56457;SDS011;42360;42.918;12.366;2024-01-25T04:00:40;22.10;;;13.35;;
56457;SDS011;42360;42.918;12.366;2024-01-25T04:03:05;20.85;;;13.70;;
56457;SDS011;42360;42.918;12.366;2024-01-25T04:05:31;19.17;;;12.68;;
56457;SDS011;42360;42.918;12.366;2024-01-25T04:07:56;22.08;;;13.27;;
56457;SDS011;42360;42.918;12.366;2024-01-25T04:10:21;17.55;;;12.45;;
56457;SDS011;42360;42.918;12.366;2024-01-25T04:12:47;17.40;;;11.88;;
56457;SDS011;42360;42.918;12.366;2024-01-25T04:15:12;16.73;;;12.90;;
56457;SDS011;42360;42.918;12.366;2024-01-25T04:17:38;17.67;;;12.55;;
56457;SDS011;42360;42.918;12.366;2024-01-25T04:20:04;16.80;;;11.57;;
56457;SDS011;42360;42.918;12.366;2024-01-25T04:22:29;20.13;;;11.43;;
56457;SDS011;42360;42.918;12.366;2024-01-25T04:24:55;24.25;;;12.70;;
56457;SDS011;42360;42.918;12.366;2024-01-25T04:27:20;20.73;;;11.57;;
56457;SDS011;42360;42.918;12.366;2024-01-25T04:29:46;16.90;;;12.02;;
56457;SDS011;42360;42.918;12.366;2024-01-25T04:32:12;20.88;;;12.93;;
56457;SDS011;42360;42.918;12.366;2024-01-25T04:34:37;19.90;;;12.00;;
56457;SDS011;42360;42.918;12.366;2024-01-25T04:37:03;18.13;;;12.15;;
56457;SDS011;42360;42.918;12.366;2024-01-25T04:39:28;19.17;;;12.82;;
56457;SDS011;42360;42.918;12.366;2024-01-25T04:41:54;17.63;;;11.63;;
56457;SDS011;42360;42.918;12.366;2024-01-25T04:44:19;18.67;;;12.40;;
56457;SDS011;42360;42.918;12.366;2024-01-25T04:46:45;18.02;;;11.98;;
56457;SDS011;42360;42.918;12.366;2024-01-25T04:49:10;24.85;;;12.82;;
56457;SDS011;42360;42.918;12.366;2024-01-25T04:51:36;16.08;;;12.02;;
56457;SDS011;42360;42.918;12.366;2024-01-25T04:54:01;21.35;;;13.20;;
56457;SDS011;42360;42.918;12.366;2024-01-25T04:56:27;22.40;;;12.88;;
56457;SDS011;42360;42.918;12.366;2024-01-25T04:58:53;18.55;;;12.38;;
56457;SDS011;42360;42.918;12.366;2024-01-25T05:01:19;18.27;;;13.07;;
56457;SDS011;42360;42.918;12.366;2024-01-25T05:03:44;18.35;;;12.40;;
56457;SDS011;42360;42.918;12.366;2024-01-25T05:06:10;21.05;;;13.93;;
56457;SDS011;42360;42.918;12.366;2024-01-25T05:08:35;21.17;;;13.10;;
56457;SDS011;42360;42.918;12.366;2024-01-25T05:11:00;17.55;;;11.73;;
56457;SDS011;42360;42.918;12.366;2024-01-25T05:13:26;18.95;;;12.57;;
56457;SDS011;42360;42.918;12.366;2024-01-25T05:15:51;18.98;;;12.95;;
56457;SDS011;42360;42.918;12.366;2024-01-25T05:18:17;17.30;;;11.90;;
56457;SDS011;42360;42.918;12.366;2024-01-25T05:20:42;21.20;;;11.63;;
56457;SDS011;42360;42.918;12.366;2024-01-25T05:23:08;18.88;;;10.88;;
56457;SDS011;42360;42.918;12.366;2024-01-25T05:25:33;20.88;;;11.98;;
56457;SDS011;42360;42.918;12.366;2024-01-25T05:27:59;18.73;;;11.75;;
56457;SDS011;42360;42.918;12.366;2024-01-25T05:30:25;20.10;;;12.30;;
56457;SDS011;42360;42.918;12.366;2024-01-25T05:32:50;18.58;;;11.85;;
56457;SDS011;42360;42.918;12.366;2024-01-25T05:35:18;18.75;;;10.90;;
56457;SDS011;42360;42.918;12.366;2024-01-25T05:37:44;15.32;;;11.63;;
56457;SDS011;42360;42.918;12.366;2024-01-25T05:40:09;18.23;;;10.77;;
56457;SDS011;42360;42.918;12.366;2024-01-25T05:42:35;14.55;;;10.93;;
56457;SDS011;42360;42.918;12.366;2024-01-25T05:45:04;15.50;;;10.40;;
56457;SDS011;42360;42.918;12.366;2024-01-25T05:47:30;16.02;;;10.60;;
56457;SDS011;42360;42.918;12.366;2024-01-25T05:49:56;15.57;;;10.90;;
56457;SDS011;42360;42.918;12.366;2024-01-25T05:52:22;17.92;;;11.52;;
56457;SDS011;42360;42.918;12.366;2024-01-25T05:54:49;15.70;;;10.60;;
56457;SDS011;42360;42.918;12.366;2024-01-25T05:57:17;21.73;;;11.63;;
56457;SDS011;42360;42.918;12.366;2024-01-25T05:59:44;20.77;;;10.88;;
56457;SDS011;42360;42.918;12.366;2024-01-25T06:02:10;14.18;;;10.93;;
56457;SDS011;42360;42.918;12.366;2024-01-25T06:04:35;16.00;;;10.90;;
56457;SDS011;42360;42.918;12.366;2024-01-25T06:07:01;17.90;;;12.02;;
56457;SDS011;42360;42.918;12.366;2024-01-25T06:09:27;19.02;;;11.70;;
56457;SDS011;42360;42.918;12.366;2024-01-25T06:11:53;16.95;;;11.27;;
56457;SDS011;42360;42.918;12.366;2024-01-25T06:14:19;14.02;;;10.38;;
56457;SDS011;42360;42.918;12.366;2024-01-25T06:16:45;15.95;;;10.73;;
56457;SDS011;42360;42.918;12.366;2024-01-25T06:19:10;18.15;;;10.55;;
56457;SDS011;42360;42.918;12.366;2024-01-25T06:21:36;22.50;;;12.02;;
56457;SDS011;42360;42.918;12.366;2024-01-25T06:24:05;16.23;;;11.75;;
56457;SDS011;42360;42.918;12.366;2024-01-25T06:26:31;18.90;;;11.25;;
56457;SDS011;42360;42.918;12.366;2024-01-25T06:28:56;17.13;;;11.60;;
56457;SDS011;42360;42.918;12.366;2024-01-25T06:31:22;17.05;;;10.27;;
56457;SDS011;42360;42.918;12.366;2024-01-25T06:33:49;18.20;;;10.30;;
56457;SDS011;42360;42.918;12.366;2024-01-25T06:36:18;17.25;;;11.38;;
56457;SDS011;42360;42.918;12.366;2024-01-25T06:38:44;19.25;;;11.25;;
56457;SDS011;42360;42.918;12.366;2024-01-25T06:41:10;18.08;;;11.18;;
56457;SDS011;42360;42.918;12.366;2024-01-25T06:43:35;19.63;;;11.52;;
56457;SDS011;42360;42.918;12.366;2024-01-25T06:46:01;19.10;;;11.90;;
56457;SDS011;42360;42.918;12.366;2024-01-25T06:48:27;16.77;;;12.00;;
56457;SDS011;42360;42.918;12.366;2024-01-25T06:50:52;18.35;;;11.18;;
56457;SDS011;42360;42.918;12.366;2024-01-25T06:53:18;16.48;;;10.98;;
56457;SDS011;42360;42.918;12.366;2024-01-25T06:55:44;18.60;;;10.93;;
56457;SDS011;42360;42.918;12.366;2024-01-25T06:58:09;15.52;;;11.07;;
56457;SDS011;42360;42.918;12.366;2024-01-25T07:00:35;21.30;;;11.98;;
56457;SDS011;42360;42.918;12.366;2024-01-25T07:03:00;20.63;;;11.82;;
56457;SDS011;42360;42.918;12.366;2024-01-25T07:05:26;17.95;;;10.90;;
56457;SDS011;42360;42.918;12.366;2024-01-25T07:07:52;16.75;;;10.35;;
56457;SDS011;42360;42.918;12.366;2024-01-25T07:10:18;21.15;;;10.65;;
56457;SDS011;42360;42.918;12.366;2024-01-25T07:12:43;15.82;;;10.82;;
56457;SDS011;42360;42.918;12.366;2024-01-25T07:15:09;22.98;;;12.43;;
56457;SDS011;42360;42.918;12.366;2024-01-25T07:17:35;17.88;;;10.82;;
56457;SDS011;42360;42.918;12.366;2024-01-25T07:20:00;20.08;;;12.52;;
56457;SDS011;42360;42.918;12.366;2024-01-25T07:22:26;18.20;;;11.68;;
56457;SDS011;42360;42.918;12.366;2024-01-25T07:24:51;24.88;;;15.13;;
56457;SDS011;42360;42.918;12.366;2024-01-25T07:27:17;23.58;;;13.23;;
56457;SDS011;42360;42.918;12.366;2024-01-25T07:29:43;21.00;;;11.98;;
56457;SDS011;42360;42.918;12.366;2024-01-25T07:32:10;23.25;;;13.23;;
56457;SDS011;42360;42.918;12.366;2024-01-25T07:34:36;18.20;;;12.20;;
56457;SDS011;42360;42.918;12.366;2024-01-25T07:37:02;19.48;;;11.55;;
56457;SDS011;42360;42.918;12.366;2024-01-25T07:39:28;18.10;;;11.93;;
56457;SDS011;42360;42.918;12.366;2024-01-25T07:41:53;19.77;;;11.73;;
56457;SDS011;42360;42.918;12.366;2024-01-25T07:44:19;16.25;;;10.63;;
56457;SDS011;42360;42.918;12.366;2024-01-25T07:46:44;24.85;;;13.02;;
56457;SDS011;42360;42.918;12.366;2024-01-25T07:49:10;18.45;;;11.82;;
56457;SDS011;42360;42.918;12.366;2024-01-25T07:51:35;19.73;;;12.15;;
56457;SDS011;42360;42.918;12.366;2024-01-25T07:54:01;24.20;;;14.10;;
56457;SDS011;42360;42.918;12.366;2024-01-25T07:56:27;20.73;;;12.88;;
56457;SDS011;42360;42.918;12.366;2024-01-25T07:58:53;19.75;;;13.10;;
56457;SDS011;42360;42.918;12.366;2024-01-25T08:01:18;17.98;;;12.45;;
56457;SDS011;42360;42.918;12.366;2024-01-25T08:03:44;21.80;;;13.52;;
56457;SDS011;42360;42.918;12.366;2024-01-25T08:06:09;18.55;;;12.15;;
56457;SDS011;42360;42.918;12.366;2024-01-25T08:08:36;22.20;;;13.35;;
56457;SDS011;42360;42.918;12.366;2024-01-25T08:11:02;19.38;;;15.25;;
56457;SDS011;42360;42.918;12.366;2024-01-25T08:13:29;22.00;;;15.55;;
56457;SDS011;42360;42.918;12.366;2024-01-25T08:15:55;23.73;;;16.23;;
56457;SDS011;42360;42.918;12.366;2024-01-25T08:18:21;21.33;;;15.13;;
56457;SDS011;42360;42.918;12.366;2024-01-25T08:20:48;21.38;;;13.68;;
56457;SDS011;42360;42.918;12.366;2024-01-25T08:23:13;21.90;;;15.75;;
56457;SDS011;42360;42.918;12.366;2024-01-25T08:25:39;23.42;;;14.25;;
56457;SDS011;42360;42.918;12.366;2024-01-25T08:28:05;22.05;;;15.02;;
56457;SDS011;42360;42.918;12.366;2024-01-25T08:30:30;19.20;;;14.30;;
56457;SDS011;42360;42.918;12.366;2024-01-25T08:32:56;20.70;;;15.20;;
56457;SDS011;42360;42.918;12.366;2024-01-25T08:35:21;24.85;;;16.33;;
56457;SDS011;42360;42.918;12.366;2024-01-25T08:37:46;23.52;;;15.05;;
56457;SDS011;42360;42.918;12.366;2024-01-25T08:40:13;22.63;;;17.25;;
56457;SDS011;42360;42.918;12.366;2024-01-25T08:42:38;26.35;;;19.80;;
56457;SDS011;42360;42.918;12.366;2024-01-25T08:45:04;25.58;;;17.50;;
56457;SDS011;42360;42.918;12.366;2024-01-25T08:47:32;21.25;;;14.98;;
56457;SDS011;42360;42.918;12.366;2024-01-25T08:49:57;17.02;;;13.73;;
56457;SDS011;42360;42.918;12.366;2024-01-25T08:52:23;20.15;;;14.18;;
56457;SDS011;42360;42.918;12.366;2024-01-25T08:54:49;18.20;;;14.80;;
56457;SDS011;42360;42.918;12.366;2024-01-25T08:57:14;17.38;;;13.13;;
56457;SDS011;42360;42.918;12.366;2024-01-25T08:59:40;21.10;;;14.95;;
56457;SDS011;42360;42.918;12.366;2024-01-25T09:02:06;18.63;;;13.50;;
56457;SDS011;42360;42.918;12.366;2024-01-25T09:04:32;17.10;;;13.15;;
56457;SDS011;42360;42.918;12.366;2024-01-25T09:06:58;14.90;;;11.82;;
56457;SDS011;42360;42.918;12.366;2024-01-25T09:09:24;17.38;;;11.43;;
56457;SDS011;42360;42.918;12.366;2024-01-25T09:11:49;113.20;;;38.42;;
56457;SDS011;42360;42.918;12.366;2024-01-25T09:14:15;37.30;;;20.88;;
56457;SDS011;42360;42.918;12.366;2024-01-25T09:16:40;23.60;;;15.65;;
56457;SDS011;42360;42.918;12.366;2024-01-25T09:19:06;16.52;;;12.32;;
56457;SDS011;42360;42.918;12.366;2024-01-25T09:21:31;19.80;;;13.52;;
56457;SDS011;42360;42.918;12.366;2024-01-25T09:23:57;21.92;;;14.43;;
56457;SDS011;42360;42.918;12.366;2024-01-25T09:26:22;24.67;;;15.82;;
56457;SDS011;42360;42.918;12.366;2024-01-25T09:28:48;16.67;;;13.07;;
56457;SDS011;42360;42.918;12.366;2024-01-25T09:31:13;20.55;;;14.27;;
56457;SDS011;42360;42.918;12.366;2024-01-25T09:33:39;17.52;;;13.20;;
56457;SDS011;42360;42.918;12.366;2024-01-25T09:36:04;19.33;;;13.27;;
56457;SDS011;42360;42.918;12.366;2024-01-25T09:38:30;17.58;;;12.32;;
56457;SDS011;42360;42.918;12.366;2024-01-25T09:40:56;17.00;;;12.35;;
56457;SDS011;42360;42.918;12.366;2024-01-25T09:43:21;15.23;;;11.68;;
56457;SDS011;42360;42.918;12.366;2024-01-25T09:45:52;15.05;;;11.30;;
56457;SDS011;42360;42.918;12.366;2024-01-25T09:48:21;15.75;;;11.80;;
56457;SDS011;42360;42.918;12.366;2024-01-25T09:50:47;16.75;;;12.95;;
56457;SDS011;42360;42.918;12.366;2024-01-25T09:53:22;17.95;;;14.77;;
56457;SDS011;42360;42.918;12.366;2024-01-25T09:56:00;17.95;;;14.68;;
56457;SDS011;42360;42.918;12.366;2024-01-25T09:58:39;19.90;;;14.55;;
56457;SDS011;42360;42.918;12.366;2024-01-25T10:01:10;21.00;;;15.68;;
56457;SDS011;42360;42.918;12.366;2024-01-25T10:03:37;19.63;;;15.70;;
56457;SDS011;42360;42.918;12.366;2024-01-25T10:06:10;20.02;;;17.70;;
56457;SDS011;42360;42.918;12.366;2024-01-25T10:08:35;23.70;;;18.52;;
56457;SDS011;42360;42.918;12.366;2024-01-25T10:11:02;20.55;;;16.92;;
56457;SDS011;42360;42.918;12.366;2024-01-25T10:13:28;24.45;;;17.23;;
56457;SDS011;42360;42.918;12.366;2024-01-25T10:15:54;21.00;;;17.00;;
56457;SDS011;42360;42.918;12.366;2024-01-25T10:18:21;21.20;;;18.17;;
56457;SDS011;42360;42.918;12.366;2024-01-25T10:20:47;22.13;;;18.52;;
56457;SDS011;42360;42.918;12.366;2024-01-25T10:23:13;20.85;;;17.75;;
56457;SDS011;42360;42.918;12.366;2024-01-25T10:25:39;23.25;;;19.15;;
56457;SDS011;42360;42.918;12.366;2024-01-25T10:28:07;23.92;;;18.83;;
56457;SDS011;42360;42.918;12.366;2024-01-25T10:30:33;25.10;;;18.80;;
56457;SDS011;42360;42.918;12.366;2024-01-25T10:33:01;32.13;;;23.60;;
56457;SDS011;42360;42.918;12.366;2024-01-25T10:35:27;30.60;;;20.85;;
56457;SDS011;42360;42.918;12.366;2024-01-25T10:37:53;26.75;;;20.48;;
56457;SDS011;42360;42.918;12.366;2024-01-25T10:40:19;27.45;;;20.73;;
56457;SDS011;42360;42.918;12.366;2024-01-25T10:42:45;30.20;;;22.00;;
56457;SDS011;42360;42.918;12.366;2024-01-25T10:45:11;28.17;;;19.85;;
56457;SDS011;42360;42.918;12.366;2024-01-25T10:47:37;27.80;;;20.35;;
56457;SDS011;42360;42.918;12.366;2024-01-25T10:50:06;28.65;;;21.98;;
56457;SDS011;42360;42.918;12.366;2024-01-25T10:52:34;26.20;;;20.15;;
56457;SDS011;42360;42.918;12.366;2024-01-25T10:55:00;24.17;;;20.05;;
56457;SDS011;42360;42.918;12.366;2024-01-25T10:57:26;28.63;;;22.30;;
56457;SDS011;42360;42.918;12.366;2024-01-25T10:59:52;25.73;;;20.80;;
56457;SDS011;42360;42.918;12.366;2024-01-25T11:02:20;26.27;;;21.10;;
56457;SDS011;42360;42.918;12.366;2024-01-25T11:04:53;29.75;;;22.65;;
56457;SDS011;42360;42.918;12.366;2024-01-25T11:07:20;31.95;;;23.58;;
56457;SDS011;42360;42.918;12.366;2024-01-25T11:09:45;30.30;;;23.98;;
56457;SDS011;42360;42.918;12.366;2024-01-25T11:12:13;27.88;;;22.42;;
56457;SDS011;42360;42.918;12.366;2024-01-25T11:14:41;27.45;;;22.77;;
56457;SDS011;42360;42.918;12.366;2024-01-25T11:17:22;29.77;;;23.80;;
56457;SDS011;42360;42.918;12.366;2024-01-25T11:19:48;30.60;;;24.02;;
56457;SDS011;42360;42.918;12.366;2024-01-25T11:22:15;30.05;;;21.90;;
56457;SDS011;42360;42.918;12.366;2024-01-25T11:24:41;34.30;;;23.23;;
56457;SDS011;42360;42.918;12.366;2024-01-25T11:27:08;33.10;;;22.98;;
56457;SDS011;42360;42.918;12.366;2024-01-25T11:29:35;28.85;;;22.33;;
56457;SDS011;42360;42.918;12.366;2024-01-25T11:32:00;37.13;;;27.70;;
56457;SDS011;42360;42.918;12.366;2024-01-25T11:34:28;44.25;;;33.38;;
56457;SDS011;42360;42.918;12.366;2024-01-25T11:36:56;39.40;;;29.63;;
56457;SDS011;42360;42.918;12.366;2024-01-25T11:39:22;29.27;;;24.27;;
56457;SDS011;42360;42.918;12.366;2024-01-25T11:41:48;30.17;;;22.90;;
56457;SDS011;42360;42.918;12.366;2024-01-25T11:44:16;31.83;;;23.58;;
56457;SDS011;42360;42.918;12.366;2024-01-25T11:46:42;25.85;;;21.90;;
56457;SDS011;42360;42.918;12.366;2024-01-25T11:49:08;35.42;;;23.95;;
56457;SDS011;42360;42.918;12.366;2024-01-25T11:51:33;26.15;;;19.77;;
56457;SDS011;42360;42.918;12.366;2024-01-25T11:53:59;31.27;;;22.35;;
56457;SDS011;42360;42.918;12.366;2024-01-25T11:56:29;29.27;;;22.30;;
56457;SDS011;42360;42.918;12.366;2024-01-25T11:58:56;29.23;;;22.15;;
56457;SDS011;42360;42.918;12.366;2024-01-25T12:01:25;26.70;;;21.02;;
56457;SDS011;42360;42.918;12.366;2024-01-25T12:03:51;26.27;;;21.33;;
56457;SDS011;42360;42.918;12.366;2024-01-25T12:06:17;29.23;;;20.65;;
56457;SDS011;42360;42.918;12.366;2024-01-25T12:08:43;26.55;;;20.95;;
56457;SDS011;42360;42.918;12.366;2024-01-25T12:11:09;28.85;;;21.63;;
56457;SDS011;42360;42.918;12.366;2024-01-25T12:13:39;26.08;;;21.83;;
56457;SDS011;42360;42.918;12.366;2024-01-25T12:16:06;28.73;;;22.15;;
56457;SDS011;42360;42.918;12.366;2024-01-25T12:18:32;31.52;;;23.50;;
56457;SDS011;42360;42.918;12.366;2024-01-25T12:20:59;33.33;;;24.10;;
56457;SDS011;42360;42.918;12.366;2024-01-25T12:23:36;42.35;;;28.52;;
56457;SDS011;42360;42.918;12.366;2024-01-25T12:26:08;31.83;;;23.50;;
56457;SDS011;42360;42.918;12.366;2024-01-25T12:28:35;32.47;;;23.48;;
56457;SDS011;42360;42.918;12.366;2024-01-25T12:31:02;35.88;;;24.83;;
56457;SDS011;42360;42.918;12.366;2024-01-25T12:33:29;29.35;;;22.20;;
56457;SDS011;42360;42.918;12.366;2024-01-25T12:35:55;54.50;;;33.30;;
56457;SDS011;42360;42.918;12.366;2024-01-25T12:38:21;40.08;;;26.65;;
56457;SDS011;42360;42.918;12.366;2024-01-25T12:40:48;32.03;;;21.38;;
56457;SDS011;42360;42.918;12.366;2024-01-25T12:43:14;31.05;;;21.80;;
56457;SDS011;42360;42.918;12.366;2024-01-25T12:45:40;25.58;;;18.00;;
56457;SDS011;42360;42.918;12.366;2024-01-25T12:48:06;27.85;;;18.75;;
56457;SDS011;42360;42.918;12.366;2024-01-25T12:50:33;26.08;;;19.67;;
56457;SDS011;42360;42.918;12.366;2024-01-25T12:52:59;24.77;;;18.73;;
56457;SDS011;42360;42.918;12.366;2024-01-25T12:55:25;23.85;;;18.10;;
56457;SDS011;42360;42.918;12.366;2024-01-25T12:57:50;24.27;;;18.88;;
56457;SDS011;42360;42.918;12.366;2024-01-25T13:00:16;29.17;;;20.35;;
56457;SDS011;42360;42.918;12.366;2024-01-25T13:02:41;25.70;;;18.92;;
56457;SDS011;42360;42.918;12.366;2024-01-25T13:05:07;26.80;;;19.98;;
56457;SDS011;42360;42.918;12.366;2024-01-25T13:07:33;24.33;;;19.23;;
56457;SDS011;42360;42.918;12.366;2024-01-25T13:09:59;24.83;;;18.48;;
56457;SDS011;42360;42.918;12.366;2024-01-25T13:12:24;27.60;;;18.40;;
56457;SDS011;42360;42.918;12.366;2024-01-25T13:14:50;24.50;;;18.77;;
56457;SDS011;42360;42.918;12.366;2024-01-25T13:17:15;21.77;;;16.88;;
56457;SDS011;42360;42.918;12.366;2024-01-25T13:19:41;24.38;;;18.65;;
56457;SDS011;42360;42.918;12.366;2024-01-25T13:22:06;23.33;;;17.40;;
56457;SDS011;42360;42.918;12.366;2024-01-25T13:24:31;24.25;;;16.67;;
56457;SDS011;42360;42.918;12.366;2024-01-25T13:26:57;18.30;;;13.65;;
56457;SDS011;42360;42.918;12.366;2024-01-25T13:29:22;16.27;;;12.80;;
56457;SDS011;42360;42.918;12.366;2024-01-25T13:31:48;14.15;;;9.90;;
56457;SDS011;42360;42.918;12.366;2024-01-25T13:34:13;12.52;;;9.10;;
56457;SDS011;42360;42.918;12.366;2024-01-25T13:36:39;13.15;;;7.88;;
56457;SDS011;42360;42.918;12.366;2024-01-25T13:39:05;10.23;;;5.63;;
56457;SDS011;42360;42.918;12.366;2024-01-25T13:41:30;13.65;;;10.00;;
56457;SDS011;42360;42.918;12.366;2024-01-25T13:43:56;7.93;;;5.75;;
56457;SDS011;42360;42.918;12.366;2024-01-25T13:46:21;6.15;;;4.40;;
56457;SDS011;42360;42.918;12.366;2024-01-25T13:48:47;7.40;;;4.15;;
56457;SDS011;42360;42.918;12.366;2024-01-25T13:51:12;4.45;;;3.53;;
56457;SDS011;42360;42.918;12.366;2024-01-25T13:53:38;5.68;;;3.65;;
56457;SDS011;42360;42.918;12.366;2024-01-25T13:56:03;6.35;;;3.83;;
56457;SDS011;42360;42.918;12.366;2024-01-25T13:58:29;9.23;;;5.28;;
56457;SDS011;42360;42.918;12.366;2024-01-25T14:00:54;6.32;;;3.83;;
56457;SDS011;42360;42.918;12.366;2024-01-25T14:03:20;5.53;;;3.50;;
56457;SDS011;42360;42.918;12.366;2024-01-25T14:05:45;6.93;;;4.05;;
56457;SDS011;42360;42.918;12.366;2024-01-25T14:08:11;8.75;;;5.38;;
56457;SDS011;42360;42.918;12.366;2024-01-25T14:10:36;6.60;;;3.97;;
56457;SDS011;42360;42.918;12.366;2024-01-25T14:13:02;7.75;;;3.70;;
56457;SDS011;42360;42.918;12.366;2024-01-25T14:15:28;14.40;;;8.20;;
56457;SDS011;42360;42.918;12.366;2024-01-25T14:17:53;5.32;;;3.70;;